sensor_id;sensor_type;location;lat;lon;timestamp;pressure;altitude;pressure_sealevel;temperature;humidity
29215;BME280;16252;49.816;7.964;2022-12-18T00:01:15;101302.53;;;-2.15;60.75
29215;BME280;16252;49.816;7.964;2022-12-18T00:03:40;101344.38;;;-1.95;60.37
29215;BME280;16252;49.816;7.964;2022-12-18T00:06:06;101347.03;;;-1.98;60.51
29215;BME280;16252;49.816;7.964;2022-12-18T00:08:31;101366.28;;;-1.94;60.24
29215;BME280;16252;49.816;7.964;2022-12-18T00:11:03;101319.13;;;-2.14;60.53
29215;BME280;16252;49.816;7.964;2022-12-18T00:13:29;101339.22;;;-2.13;60.46
29215;BME280;16252;49.816;7.964;2022-12-18T00:15:54;101363.66;;;-2.05;60.38
29215;BME280;16252;49.816;7.964;2022-12-18T00:18:20;101356.66;;;-2.02;60.24
29215;BME280;16252;49.816;7.964;2022-12-18T00:20:45;101359.28;;;-2.02;60.41
29215;BME280;16252;49.816;7.964;2022-12-18T00:23:10;101348.78;;;-2.03;60.32
29215;BME280;16252;49.816;7.964;2022-12-18T00:25:36;101332.25;;;-2.17;60.23
29215;BME280;16252;49.816;7.964;2022-12-18T00:28:02;101320.03;;;-2.28;60.27
29215;BME280;16252;49.816;7.964;2022-12-18T00:30:28;101349.69;;;-2.09;60.39
29215;BME280;16252;49.816;7.964;2022-12-18T00:32:53;101266.78;;;-2.53;60.35
29215;BME280;16252;49.816;7.964;2022-12-18T00:35:19;101258.03;;;-2.53;60.25
29215;BME280;16252;49.816;7.964;2022-12-18T00:37:44;101340.09;;;-2.10;60.21
29215;BME280;16252;49.816;7.964;2022-12-18T00:40:10;101351.44;;;-2.02;60.20
29215;BME280;16252;49.816;7.964;2022-12-18T00:42:35;101362.78;;;-1.98;59.96
29215;BME280;16252;49.816;7.964;2022-12-18T00:45:19;101332.22;;;-2.14;60.08
29215;BME280;16252;49.816;7.964;2022-12-18T00:47:44;101337.47;;;-2.10;60.24
29215;BME280;16252;49.816;7.964;2022-12-18T00:50:10;101333.09;;;-2.09;60.28
29215;BME280;16252;49.816;7.964;2022-12-18T00:52:35;101348.81;;;-2.02;60.03
29215;BME280;16252;49.816;7.964;2022-12-18T00:55:00;101178.69;;;-3.09;59.98
29215;BME280;16252;49.816;7.964;2022-12-18T00:57:26;101303.47;;;-2.47;60.14
29215;BME280;16252;49.816;7.964;2022-12-18T00:59:51;101354.06;;;-2.09;59.96
29215;BME280;16252;49.816;7.964;2022-12-18T01:02:16;101343.56;;;-2.15;59.99
29215;BME280;16252;49.816;7.964;2022-12-18T01:04:42;101320.03;;;-2.29;60.02
29215;BME280;16252;49.816;7.964;2022-12-18T01:07:07;101348.84;;;-2.14;60.17
29215;BME280;16252;49.816;7.964;2022-12-18T01:09:32;101344.47;;;-2.16;60.27
29215;BME280;16252;49.816;7.964;2022-12-18T01:11:58;101342.75;;;-2.27;60.21
29215;BME280;16252;49.816;7.964;2022-12-18T01:14:23;101349.72;;;-2.26;60.30
29215;BME280;16252;49.816;7.964;2022-12-18T01:16:48;101265.06;;;-2.81;60.29
29215;BME280;16252;49.816;7.964;2022-12-18T01:19:13;101354.97;;;-2.20;60.39
29215;BME280;16252;49.816;7.964;2022-12-18T01:21:39;101347.97;;;-2.24;60.12
29215;BME280;16252;49.816;7.964;2022-12-18T01:24:04;101333.16;;;-2.34;60.17
29215;BME280;16252;49.816;7.964;2022-12-18T01:26:30;101358.47;;;-2.24;60.29
29215;BME280;16252;49.816;7.964;2022-12-18T01:28:56;101364.56;;;-2.19;60.31
29215;BME280;16252;49.816;7.964;2022-12-18T01:31:28;101375.06;;;-2.14;60.36
29215;BME280;16252;49.816;7.964;2022-12-18T01:33:55;101375.94;;;-2.18;60.42
29215;BME280;16252;49.816;7.964;2022-12-18T01:36:25;101382.03;;;-2.11;60.21
29215;BME280;16252;49.816;7.964;2022-12-18T01:38:51;101367.22;;;-2.25;60.29
29215;BME280;16252;49.816;7.964;2022-12-18T01:41:25;101384.69;;;-2.14;60.39
29215;BME280;16252;49.816;7.964;2022-12-18T01:43:56;101382.03;;;-2.13;60.11
29215;BME280;16252;49.816;7.964;2022-12-18T01:46:23;101354.13;;;-2.32;60.17
29215;BME280;16252;49.816;7.964;2022-12-18T01:48:53;101384.69;;;-2.10;60.03
29215;BME280;16252;49.816;7.964;2022-12-18T01:51:20;101379.44;;;-2.11;60.24
29215;BME280;16252;49.816;7.964;2022-12-18T01:53:46;101375.06;;;-2.14;60.07
29215;BME280;16252;49.816;7.964;2022-12-18T01:56:17;101299.13;;;-2.63;60.20
29215;BME280;16252;49.816;7.964;2022-12-18T01:58:50;101360.22;;;-2.23;60.11
29215;BME280;16252;49.816;7.964;2022-12-18T02:01:18;101382.06;;;-2.19;60.19
29215;BME280;16252;49.816;7.964;2022-12-18T02:03:45;101327.94;;;-2.49;60.18
29215;BME280;16252;49.816;7.964;2022-12-18T02:06:16;101377.69;;;-2.23;60.21
29215;BME280;16252;49.816;7.964;2022-12-18T02:09:25;101375.06;;;-2.15;60.31
29215;BME280;16252;49.816;7.964;2022-12-18T02:12:10;101375.94;;;-2.16;60.12
29215;BME280;16252;49.816;7.964;2022-12-18T02:17:47;101242.41;;;-2.98;60.11
29215;BME280;16252;49.816;7.964;2022-12-18T02:20:39;101382.03;;;-2.11;60.02
29215;BME280;16252;49.816;7.964;2022-12-18T02:23:16;101380.31;;;-2.12;60.04
29215;BME280;16252;49.816;7.964;2022-12-18T02:26:12;101382.03;;;-2.11;59.96
29215;BME280;16252;49.816;7.964;2022-12-18T02:28:49;101357.59;;;-2.21;60.01
29215;BME280;16252;49.816;7.964;2022-12-18T02:31:42;101345.34;;;-2.24;60.07
29215;BME280;16252;49.816;7.964;2022-12-18T02:34:09;101367.22;;;-2.20;60.02
29215;BME280;16252;49.816;7.964;2022-12-18T02:36:38;101360.22;;;-2.20;60.03
29215;BME280;16252;49.816;7.964;2022-12-18T02:39:07;101363.72;;;-2.17;59.97
29215;BME280;16252;49.816;7.964;2022-12-18T02:41:34;101361.97;;;-2.25;59.67
29215;BME280;16252;49.816;7.964;2022-12-18T02:44:09;101353.22;;;-2.17;59.99
29215;BME280;16252;49.816;7.964;2022-12-18T02:46:44;101356.72;;;-2.19;59.77
29215;BME280;16252;49.816;7.964;2022-12-18T02:49:35;101354.94;;;-2.13;59.95
29215;BME280;16252;49.816;7.964;2022-12-18T02:57:42;101289.50;;;-2.47;59.62
29215;BME280;16252;49.816;7.964;2022-12-18T03:00:14;101347.97;;;-2.24;59.69
29215;BME280;16252;49.816;7.964;2022-12-18T03:03:06;101309.56;;;-2.40;59.55
29215;BME280;16252;49.816;7.964;2022-12-18T03:10:33;101234.56;;;-3.01;59.72
29215;BME280;16252;49.816;7.964;2022-12-18T03:13:04;101366.34;;;-2.28;59.81
29215;BME280;16252;49.816;7.964;2022-12-18T03:15:35;101356.75;;;-2.37;59.67
29215;BME280;16252;49.816;7.964;2022-12-18T03:18:10;101178.72;;;-3.37;59.78
29215;BME280;16252;49.816;7.964;2022-12-18T03:20:39;101341.91;;;-2.43;59.56
29215;BME280;16252;49.816;7.964;2022-12-18T03:23:10;101356.75;;;-2.29;59.64
29215;BME280;16252;49.816;7.964;2022-12-18T03:25:40;101352.38;;;-2.35;59.55
29215;BME280;16252;49.816;7.964;2022-12-18T03:28:09;101327.06;;;-2.50;59.64
29215;BME280;16252;49.816;7.964;2022-12-18T03:30:37;101354.13;;;-2.25;59.40
29215;BME280;16252;49.816;7.964;2022-12-18T03:33:26;101351.47;;;-2.31;59.26
29215;BME280;16252;49.816;7.964;2022-12-18T03:35:52;101330.56;;;-2.62;59.28
29215;BME280;16252;49.816;7.964;2022-12-18T03:38:18;101359.38;;;-2.46;59.47
29215;BME280;16252;49.816;7.964;2022-12-18T03:41:05;101357.63;;;-2.38;59.35
29215;BME280;16252;49.816;7.964;2022-12-18T03:46:29;101352.41;;;-2.50;59.57
29215;BME280;16252;49.816;7.964;2022-12-18T03:49:14;101323.59;;;-2.70;59.22
29215;BME280;16252;49.816;7.964;2022-12-18T03:52:01;101361.97;;;-2.43;59.48
29215;BME280;16252;49.816;7.964;2022-12-18T03:54:28;101339.31;;;-2.63;59.54
29215;BME280;16252;49.816;7.964;2022-12-18T03:57:09;101371.63;;;-2.45;59.41
29215;BME280;16252;49.816;7.964;2022-12-18T03:59:37;101349.78;;;-2.55;59.32
29215;BME280;16252;49.816;7.964;2022-12-18T04:02:04;101238.03;;;-3.22;59.34
29215;BME280;16252;49.816;7.964;2022-12-18T04:04:31;101331.47;;;-2.66;59.33
29215;BME280;16252;49.816;7.964;2022-12-18T04:06:58;101330.56;;;-2.65;59.40
29215;BME280;16252;49.816;7.964;2022-12-18T04:09:24;101348.03;;;-2.54;59.50
29215;BME280;16252;49.816;7.964;2022-12-18T04:11:51;101327.09;;;-2.73;59.53
29215;BME280;16252;49.816;7.964;2022-12-18T04:14:16;101324.47;;;-2.76;59.37
29215;BME280;16252;49.816;7.964;2022-12-18T04:16:42;101327.97;;;-2.71;59.45
29215;BME280;16252;49.816;7.964;2022-12-18T04:19:07;101332.34;;;-2.68;59.36
29215;BME280;16252;49.816;7.964;2022-12-18T04:21:32;101357.66;;;-2.63;59.21
29215;BME280;16252;49.816;7.964;2022-12-18T04:23:58;101279.06;;;-3.12;59.32
29215;BME280;16252;49.816;7.964;2022-12-18T04:26:23;101349.78;;;-2.67;59.49
29215;BME280;16252;49.816;7.964;2022-12-18T04:28:48;101353.28;;;-2.65;59.49
29215;BME280;16252;49.816;7.964;2022-12-18T04:31:14;101341.06;;;-2.68;59.48
29215;BME280;16252;49.816;7.964;2022-12-18T04:33:39;101315.75;;;-2.81;59.28
29215;BME280;16252;49.816;7.964;2022-12-18T04:36:05;101347.16;;;-2.59;59.53
29215;BME280;16252;49.816;7.964;2022-12-18T04:38:30;101300.91;;;-2.88;59.28
29215;BME280;16252;49.816;7.964;2022-12-18T04:40:56;101331.47;;;-2.73;59.79
29215;BME280;16252;49.816;7.964;2022-12-18T04:43:21;101336.69;;;-2.72;59.49
29215;BME280;16252;49.816;7.964;2022-12-18T04:45:46;101249.41;;;-3.23;59.36
29215;BME280;16252;49.816;7.964;2022-12-18T04:48:12;101348.03;;;-2.70;59.43
29215;BME280;16252;49.816;7.964;2022-12-18T04:50:37;101152.56;;;-3.84;59.34
29215;BME280;16252;49.816;7.964;2022-12-18T04:53:02;101292.16;;;-3.10;59.38
29215;BME280;16252;49.816;7.964;2022-12-18T04:55:28;101329.72;;;-2.85;59.29
29215;BME280;16252;49.816;7.964;2022-12-18T04:57:53;101265.09;;;-3.28;59.17
29215;BME280;16252;49.816;7.964;2022-12-18T05:00:19;101335.81;;;-2.85;59.36
29215;BME280;16252;49.816;7.964;2022-12-18T05:02:44;101259.84;;;-3.28;59.03
29215;BME280;16252;49.816;7.964;2022-12-18T05:05:09;101352.44;;;-2.73;59.17
29215;BME280;16252;49.816;7.964;2022-12-18T05:07:35;101245.91;;;-3.36;59.05
29215;BME280;16252;49.816;7.964;2022-12-18T05:10:00;101351.53;;;-2.68;59.28
29215;BME280;16252;49.816;7.964;2022-12-18T05:12:27;101315.75;;;-2.90;59.10
29215;BME280;16252;49.816;7.964;2022-12-18T05:14:52;101341.94;;;-2.79;59.21
29215;BME280;16252;49.816;7.964;2022-12-18T05:17:17;101357.66;;;-2.70;59.40
29215;BME280;16252;49.816;7.964;2022-12-18T05:19:43;101351.53;;;-2.72;59.29
29215;BME280;16252;49.816;7.964;2022-12-18T05:22:09;101330.59;;;-2.80;59.11
29215;BME280;16252;49.816;7.964;2022-12-18T05:24:34;101333.19;;;-2.77;59.28
29215;BME280;16252;49.816;7.964;2022-12-18T05:26:59;101263.34;;;-3.30;59.19
29215;BME280;16252;49.816;7.964;2022-12-18T05:29:25;101361.16;;;-2.73;59.28
29215;BME280;16252;49.816;7.964;2022-12-18T05:31:50;101344.53;;;-2.79;59.31
29215;BME280;16252;49.816;7.964;2022-12-18T05:34:15;101335.81;;;-2.86;59.27
29215;BME280;16252;49.816;7.964;2022-12-18T05:36:41;101318.34;;;-2.99;59.17
29215;BME280;16252;49.816;7.964;2022-12-18T05:39:06;101255.50;;;-3.38;59.23
29215;BME280;16252;49.816;7.964;2022-12-18T05:41:32;101335.81;;;-2.88;59.26
29215;BME280;16252;49.816;7.964;2022-12-18T05:43:58;101318.34;;;-3.06;59.28
29215;BME280;16252;49.816;7.964;2022-12-18T05:46:23;101196.13;;;-3.83;59.01
29215;BME280;16252;49.816;7.964;2022-12-18T05:48:49;101360.28;;;-2.90;59.24
29215;BME280;16252;49.816;7.964;2022-12-18T05:51:17;101355.91;;;-2.96;59.42
29215;BME280;16252;49.816;7.964;2022-12-18T05:53:43;101341.03;;;-3.18;59.21
29215;BME280;16252;49.816;7.964;2022-12-18T05:56:14;101373.34;;;-2.92;59.29
29215;BME280;16252;49.816;7.964;2022-12-18T05:58:40;101364.63;;;-2.92;59.26
29215;BME280;16252;49.816;7.964;2022-12-18T06:01:09;101347.16;;;-3.13;58.98
29215;BME280;16252;49.816;7.964;2022-12-18T06:03:35;101375.97;;;-2.92;58.91
29215;BME280;16252;49.816;7.964;2022-12-18T06:06:00;101353.25;;;-2.94;58.85
29215;BME280;16252;49.816;7.964;2022-12-18T06:08:26;101348.88;;;-3.01;58.82
29215;BME280;16252;49.816;7.964;2022-12-18T06:10:52;101371.59;;;-3.02;58.70
29215;BME280;16252;49.816;7.964;2022-12-18T06:13:18;101372.50;;;-2.98;58.57
29215;BME280;16252;49.816;7.964;2022-12-18T06:15:44;101380.34;;;-2.95;58.64
29215;BME280;16252;49.816;7.964;2022-12-18T06:18:09;101313.06;;;-3.39;58.44
29215;BME280;16252;49.816;7.964;2022-12-18T06:20:34;101353.25;;;-3.17;58.68
29215;BME280;16252;49.816;7.964;2022-12-18T06:23:02;101399.53;;;-2.99;58.62
29215;BME280;16252;49.816;7.964;2022-12-18T06:25:28;101368.09;;;-3.15;58.79
29215;BME280;16252;49.816;7.964;2022-12-18T06:27:53;101389.91;;;-3.10;58.85
29215;BME280;16252;49.816;7.964;2022-12-18T06:30:18;101395.16;;;-3.13;58.80
29215;BME280;16252;49.816;7.964;2022-12-18T06:32:44;101309.53;;;-3.69;58.56
29215;BME280;16252;49.816;7.964;2022-12-18T06:35:09;101375.00;;;-3.40;58.88
29215;BME280;16252;49.816;7.964;2022-12-18T06:37:35;101295.50;;;-3.88;58.60
29215;BME280;16252;49.816;7.964;2022-12-18T06:40:00;101400.34;;;-3.30;58.61
29215;BME280;16252;49.816;7.964;2022-12-18T06:42:26;101248.31;;;-4.22;58.61
29215;BME280;16252;49.816;7.964;2022-12-18T06:44:51;101275.41;;;-4.00;58.68
29215;BME280;16252;49.816;7.964;2022-12-18T06:47:17;101373.25;;;-3.44;58.80
29215;BME280;16252;49.816;7.964;2022-12-18T06:49:43;101369.75;;;-3.47;58.57
29215;BME280;16252;49.816;7.964;2022-12-18T06:52:08;101402.94;;;-3.30;58.78
29215;BME280;16252;49.816;7.964;2022-12-18T06:54:34;101349.66;;;-3.58;58.64
29215;BME280;16252;49.816;7.964;2022-12-18T06:56:59;101395.97;;;-3.28;58.54
29215;BME280;16252;49.816;7.964;2022-12-18T06:59:24;101287.63;;;-3.96;58.64
29215;BME280;16252;49.816;7.964;2022-12-18T07:01:49;101291.13;;;-3.87;58.70
29215;BME280;16252;49.816;7.964;2022-12-18T07:04:15;101396.84;;;-3.33;58.73
29215;BME280;16252;49.816;7.964;2022-12-18T07:06:40;101401.22;;;-3.31;58.86
29215;BME280;16252;49.816;7.964;2022-12-18T07:09:05;101402.97;;;-3.28;58.61
29215;BME280;16252;49.816;7.964;2022-12-18T07:11:32;101404.69;;;-3.27;58.62
29215;BME280;16252;49.816;7.964;2022-12-18T07:13:57;101389.00;;;-3.33;58.73
29215;BME280;16252;49.816;7.964;2022-12-18T07:16:24;101395.97;;;-3.32;58.74
29215;BME280;16252;49.816;7.964;2022-12-18T07:18:50;101248.34;;;-4.17;58.88
29215;BME280;16252;49.816;7.964;2022-12-18T07:21:17;101391.59;;;-3.38;58.79
29215;BME280;16252;49.816;7.964;2022-12-18T07:23:43;101407.31;;;-3.30;58.93
29215;BME280;16252;49.816;7.964;2022-12-18T07:26:11;101227.31;;;-4.39;58.79
29215;BME280;16252;49.816;7.964;2022-12-18T07:28:38;101416.06;;;-3.27;58.97
29215;BME280;16252;49.816;7.964;2022-12-18T07:31:05;101422.19;;;-3.26;59.05
29215;BME280;16252;49.816;7.964;2022-12-18T07:33:31;101404.69;;;-3.41;58.85
29215;BME280;16252;49.816;7.964;2022-12-18T07:35:58;101310.31;;;-3.92;58.85
29215;BME280;16252;49.816;7.964;2022-12-18T07:38:24;101398.56;;;-3.38;58.81
29215;BME280;16252;49.816;7.964;2022-12-18T07:40:49;101399.44;;;-3.39;59.15
29215;BME280;16252;49.816;7.964;2022-12-18T07:43:14;101425.66;;;-3.27;59.01
29215;BME280;16252;49.816;7.964;2022-12-18T07:45:40;101421.28;;;-3.28;59.13
29215;BME280;16252;49.816;7.964;2022-12-18T07:48:05;101422.19;;;-3.29;58.87
29215;BME280;16252;49.816;7.964;2022-12-18T07:50:30;101301.53;;;-4.03;58.86
29215;BME280;16252;49.816;7.964;2022-12-18T07:52:55;101420.41;;;-3.30;58.79
29215;BME280;16252;49.816;7.964;2022-12-18T07:55:21;101414.28;;;-3.32;58.78
29215;BME280;16252;49.816;7.964;2022-12-18T07:57:46;101355.75;;;-3.69;58.96
29215;BME280;16252;49.816;7.964;2022-12-18T08:00:12;101426.56;;;-3.23;59.01
29215;BME280;16252;49.816;7.964;2022-12-18T08:02:37;101410.81;;;-3.33;59.19
29215;BME280;16252;49.816;7.964;2022-12-18T08:05:03;101420.41;;;-3.27;59.03
29215;BME280;16252;49.816;7.964;2022-12-18T08:07:29;101422.19;;;-3.26;58.98
29215;BME280;16252;49.816;7.964;2022-12-18T08:09:54;101434.38;;;-3.28;58.92
29215;BME280;16252;49.816;7.964;2022-12-18T08:12:19;101321.63;;;-3.94;59.05
29215;BME280;16252;49.816;7.964;2022-12-18T08:14:44;101429.16;;;-3.27;59.07
29215;BME280;16252;49.816;7.964;2022-12-18T08:17:10;101252.63;;;-4.31;58.97
29215;BME280;16252;49.816;7.964;2022-12-18T08:19:35;101433.53;;;-3.21;59.03
29215;BME280;16252;49.816;7.964;2022-12-18T08:22:00;101418.69;;;-3.27;58.96
29215;BME280;16252;49.816;7.964;2022-12-18T08:24:26;101380.22;;;-3.46;59.00
29215;BME280;16252;49.816;7.964;2022-12-18T08:26:51;101404.72;;;-3.29;58.99
29215;BME280;16252;49.816;7.964;2022-12-18T08:29:16;101303.38;;;-3.82;59.10
29215;BME280;16252;49.816;7.964;2022-12-18T08:31:42;101409.09;;;-3.21;58.92
29215;BME280;16252;49.816;7.964;2022-12-18T08:34:07;101425.69;;;-3.13;59.12
29215;BME280;16252;49.816;7.964;2022-12-18T08:36:33;101398.63;;;-3.29;59.04
29215;BME280;16252;49.816;7.964;2022-12-18T08:38:58;101404.72;;;-3.22;59.11
29215;BME280;16252;49.816;7.964;2022-12-18T08:41:24;101372.41;;;-3.32;59.44
29215;BME280;16252;49.816;7.964;2022-12-18T08:43:49;101404.75;;;-3.10;59.10
29215;BME280;16252;49.816;7.964;2022-12-18T08:46:42;101403.03;;;-3.03;58.99
29215;BME280;16252;49.816;7.964;2022-12-18T08:49:09;101399.53;;;-3.06;59.03
29215;BME280;16252;49.816;7.964;2022-12-18T08:51:35;101386.44;;;-3.09;59.30
29215;BME280;16252;49.816;7.964;2022-12-18T08:54:00;101292.09;;;-3.61;59.05
29215;BME280;16252;49.816;7.964;2022-12-18T08:56:26;101244.94;;;-3.88;58.91
29215;BME280;16252;49.816;7.964;2022-12-18T08:58:53;101390.81;;;-3.06;59.07
29215;BME280;16252;49.816;7.964;2022-12-18T09:01:18;101370.69;;;-3.25;59.11
29215;BME280;16252;49.816;7.964;2022-12-18T09:03:43;101394.28;;;-3.10;59.13
29215;BME280;16252;49.816;7.964;2022-12-18T09:06:16;101223.97;;;-4.10;59.07
29215;BME280;16252;49.816;7.964;2022-12-18T09:08:43;101390.78;;;-3.11;59.29
29215;BME280;16252;49.816;7.964;2022-12-18T09:11:25;101410.91;;;-2.93;59.16
29215;BME280;16252;49.816;7.964;2022-12-18T09:13:52;101402.16;;;-2.95;59.60
29215;BME280;16252;49.816;7.964;2022-12-18T09:16:18;101401.28;;;-3.01;59.28
29215;BME280;16252;49.816;7.964;2022-12-18T09:18:45;101414.38;;;-2.92;59.42
29215;BME280;16252;49.816;7.964;2022-12-18T09:21:13;101388.19;;;-2.98;59.62
29215;BME280;16252;49.816;7.964;2022-12-18T09:23:39;101424.88;;;-2.81;59.43
29215;BME280;16252;49.816;7.964;2022-12-18T09:26:04;101403.91;;;-2.92;59.58
29215;BME280;16252;49.816;7.964;2022-12-18T09:28:30;101429.25;;;-2.80;59.41
29215;BME280;16252;49.816;7.964;2022-12-18T09:30:55;101339.22;;;-3.42;59.29
29215;BME280;16252;49.816;7.964;2022-12-18T09:33:21;101437.13;;;-2.76;59.50
29215;BME280;16252;49.816;7.964;2022-12-18T09:35:46;101379.44;;;-3.13;59.36
29215;BME280;16252;49.816;7.964;2022-12-18T09:38:14;101300.81;;;-3.60;59.39
29215;BME280;16252;49.816;7.964;2022-12-18T09:40:47;101425.75;;;-2.83;59.31
29215;BME280;16252;49.816;7.964;2022-12-18T09:43:19;101419.66;;;-2.83;59.30
29215;BME280;16252;49.816;7.964;2022-12-18T09:45:49;101380.31;;;-3.05;59.33
29215;BME280;16252;49.816;7.964;2022-12-18T09:48:21;101452.88;;;-2.60;59.12
29215;BME280;16252;49.816;7.964;2022-12-18T09:50:50;101405.69;;;-2.85;59.15
29215;BME280;16252;49.816;7.964;2022-12-18T09:53:22;101452.00;;;-2.58;59.22
29215;BME280;16252;49.816;7.964;2022-12-18T09:55:50;101258.94;;;-3.65;58.97
29215;BME280;16252;49.816;7.964;2022-12-18T09:58:38;101447.63;;;-2.54;59.02
29215;BME280;16252;49.816;7.964;2022-12-18T10:01:23;101457.25;;;-2.52;58.94
29215;BME280;16252;49.816;7.964;2022-12-18T10:03:49;101417.91;;;-2.78;59.12
29215;BME280;16252;49.816;7.964;2022-12-18T10:09:36;101380.34;;;-2.72;58.95
29215;BME280;16252;49.816;7.964;2022-12-18T10:12:08;101366.38;;;-2.77;58.95
29215;BME280;16252;49.816;7.964;2022-12-18T10:14:57;101417.94;;;-2.35;59.03
29215;BME280;16252;49.816;7.964;2022-12-18T10:20:16;101411.81;;;-2.25;59.08
29215;BME280;16252;49.816;7.964;2022-12-18T10:23:27;101417.03;;;-2.23;59.08
29215;BME280;16252;49.816;7.964;2022-12-18T10:28:10;101358.47;;;-2.36;58.44
29215;BME280;16252;49.816;7.964;2022-12-18T10:30:38;101268.56;;;-2.89;58.69
29215;BME280;16252;49.816;7.964;2022-12-18T10:33:03;101317.47;;;-2.68;58.84
29215;BME280;16252;49.816;7.964;2022-12-18T10:35:29;101392.56;;;-2.24;58.76
29215;BME280;16252;49.816;7.964;2022-12-18T10:38:19;101410.00;;;-2.03;58.57
29215;BME280;16252;49.816;7.964;2022-12-18T10:40:54;101404.75;;;-1.97;58.64
29215;BME280;16252;49.816;7.964;2022-12-18T10:43:22;101387.28;;;-2.04;58.97
29215;BME280;16252;49.816;7.964;2022-12-18T10:46:19;101397.75;;;-1.87;58.41
29215;BME280;16252;49.816;7.964;2022-12-18T10:48:52;101398.59;;;-1.88;58.73
29215;BME280;16252;49.816;7.964;2022-12-18T10:51:25;101416.94;;;-1.74;58.39
29215;BME280;16252;49.816;7.964;2022-12-18T10:54:14;101430.03;;;-1.66;58.33
29215;BME280;16252;49.816;7.964;2022-12-18T10:56:40;101410.81;;;-1.76;58.72
29215;BME280;16252;49.816;7.964;2022-12-18T10:59:07;101309.53;;;-2.31;58.38
29215;BME280;16252;49.816;7.964;2022-12-18T11:01:57;101384.59;;;-1.79;57.93
29215;BME280;16252;49.816;7.964;2022-12-18T11:04:28;101411.66;;;-1.62;58.33
29215;BME280;16252;49.816;7.964;2022-12-18T11:07:07;101336.56;;;-2.01;57.90
29215;BME280;16252;49.816;7.964;2022-12-18T11:09:35;101388.09;;;-1.77;58.12
29215;BME280;16252;49.816;7.964;2022-12-18T11:12:18;101404.66;;;-1.61;58.23
29215;BME280;16252;49.816;7.964;2022-12-18T11:14:47;101380.16;;;-1.72;58.20
29215;BME280;16252;49.816;7.964;2022-12-18T11:17:21;101388.91;;;-1.70;58.05
29215;BME280;16252;49.816;7.964;2022-12-18T11:19:57;101364.47;;;-1.83;58.14
29215;BME280;16252;49.816;7.964;2022-12-18T11:22:25;101374.09;;;-1.81;58.04
29215;BME280;16252;49.816;7.964;2022-12-18T11:27:37;101276.34;;;-2.32;58.39
29215;BME280;16252;49.816;7.964;2022-12-18T11:33:06;101366.19;;;-1.71;58.11
29215;BME280;16252;49.816;7.964;2022-12-18T11:35:47;101392.41;;;-1.65;58.50
29215;BME280;16252;49.816;7.964;2022-12-18T11:38:22;101391.53;;;-1.64;58.28
29215;BME280;16252;49.816;7.964;2022-12-18T11:40:59;101387.16;;;-1.65;58.21
29215;BME280;16252;49.816;7.964;2022-12-18T11:43:31;101375.81;;;-1.73;58.49
29215;BME280;16252;49.816;7.964;2022-12-18T11:46:07;101306.84;;;-2.08;58.49
29215;BME280;16252;49.816;7.964;2022-12-18T11:48:49;101332.16;;;-1.93;58.39
29215;BME280;16252;49.816;7.964;2022-12-18T11:51:31;101343.50;;;-1.85;58.48
29215;BME280;16252;49.816;7.964;2022-12-18T11:53:59;101369.69;;;-1.69;59.00
29215;BME280;16252;49.816;7.964;2022-12-18T12:07:38;101362.53;;;-1.37;58.62
29215;BME280;16252;49.816;7.964;2022-12-18T12:10:38;101305.78;;;-1.59;58.21
29215;BME280;16252;49.816;7.964;2022-12-18T12:21:39;101346.72;;;-1.32;58.16
29215;BME280;16252;49.816;7.964;2022-12-18T12:27:23;101310.97;;;-1.51;58.21
29215;BME280;16252;49.816;7.964;2022-12-18T12:30:19;101307.47;;;-1.52;58.26
29215;BME280;16252;49.816;7.964;2022-12-18T12:38:43;101261.31;;;-1.87;58.58
29215;BME280;16252;49.816;7.964;2022-12-18T12:41:13;101268.22;;;-1.75;58.73
29215;BME280;16252;49.816;7.964;2022-12-18T12:44:03;101330.13;;;-1.36;58.75
29215;BME280;16252;49.816;7.964;2022-12-18T12:46:32;101303.91;;;-1.45;58.95
29215;BME280;16252;49.816;7.964;2022-12-18T12:49:02;101252.44;;;-1.67;58.85
29215;BME280;16252;49.816;7.964;2022-12-18T12:51:34;101303.91;;;-1.40;58.93
29215;BME280;16252;49.816;7.964;2022-12-18T12:54:02;101217.53;;;-1.79;59.07
29215;BME280;16252;49.816;7.964;2022-12-18T12:56:40;101275.91;;;-1.44;59.06
29215;BME280;16252;49.816;7.964;2022-12-18T12:59:27;101281.06;;;-1.27;59.13
29215;BME280;16252;49.816;7.964;2022-12-18T13:02:06;101251.44;;;-1.48;59.24
29215;BME280;16252;49.816;7.964;2022-12-18T13:04:43;101250.50;;;-1.38;59.20
29215;BME280;16252;49.816;7.964;2022-12-18T13:07:16;101259.19;;;-1.28;59.36
29215;BME280;16252;49.816;7.964;2022-12-18T13:10:19;101286.97;;;-0.98;59.30
29215;BME280;16252;49.816;7.964;2022-12-18T13:13:12;101284.34;;;-0.98;59.11
29215;BME280;16252;49.816;7.964;2022-12-18T13:15:39;101280.84;;;-1.01;59.13
29215;BME280;16252;49.816;7.964;2022-12-18T13:20:34;101279.13;;;-1.01;59.29
29215;BME280;16252;49.816;7.964;2022-12-18T13:23:18;101250.38;;;-1.21;59.19
29215;BME280;16252;49.816;7.964;2022-12-18T13:25:44;101232.91;;;-1.29;59.07
29215;BME280;16252;49.816;7.964;2022-12-18T13:28:16;101278.25;;;-1.03;58.97
29215;BME280;16252;49.816;7.964;2022-12-18T13:38:24;101224.22;;;-1.33;59.10
29215;BME280;16252;49.816;7.964;2022-12-18T13:40:58;101274.78;;;-1.10;59.10
29215;BME280;16252;49.816;7.964;2022-12-18T13:43:47;101256.44;;;-1.13;59.08
29215;BME280;16252;49.816;7.964;2022-12-18T13:46:29;101246.03;;;-1.23;58.99
29215;BME280;16252;49.816;7.964;2022-12-18T13:51:54;101273.06;;;-1.12;58.97
29215;BME280;16252;49.816;7.964;2022-12-18T13:54:35;101265.25;;;-1.18;58.96
29215;BME280;16252;49.816;7.964;2022-12-18T13:57:02;101268.72;;;-1.16;59.12
29215;BME280;16252;49.816;7.964;2022-12-18T13:59:37;101262.59;;;-1.14;59.03
29215;BME280;16252;49.816;7.964;2022-12-18T14:02:17;101258.19;;;-1.15;59.04
29215;BME280;16252;49.816;7.964;2022-12-18T14:04:47;101261.72;;;-1.17;58.99
29215;BME280;16252;49.816;7.964;2022-12-18T14:07:18;101194.66;;;-1.61;58.95
29215;BME280;16252;49.816;7.964;2022-12-18T14:09:50;101222.59;;;-1.53;58.91
29215;BME280;16252;49.816;7.964;2022-12-18T14:12:18;101273.16;;;-1.23;58.98
29215;BME280;16252;49.816;7.964;2022-12-18T14:15:06;101270.59;;;-1.34;59.16
29215;BME280;16252;49.816;7.964;2022-12-18T14:17:36;101267.94;;;-1.31;59.04